Portada
METAR-TAF:

METAR-TAF

Aeroports :

Burlington Municipal Airport

Burlington, Wisconsin, Estats Units d'Amèrica

latitud: 42-41-26N, longitud: 088-18-17W, altitud: 237 m

Observació

L'informe es va fer fa 28 minuts, a les 18:35 UTC
Vent 9 kt del Sud/Sud-Est, variant entre Sud-Est i Sud/Sud-Oest
Temperatura 28°C
Humitat 48%
Pressió 1013 hPa
Visibilitat: 16.1 km
Cel clar

METAR: KBUU 191835Z AUTO 15009KT 130V210 10SM CLR 28/16 A2992 RMK AO2 T02760156

Hora: 14:03 (19:03 UTC)


TAF: manca

Observacions i pronòstics meteorològics de més de 4000 aeroports (METAR i TAF).

Les estacions disponibles són els punts grocs i vermells al mapa.

Posi el ratolí al punt desitjat per veure el nom de l'estació.

Feu clic per veure les observacions i els pronòstics meteorològics.

Per canviar el mapa: feu clic els botons verds amb una creu de color negre per apropar; al botó verd amb un guió per allunyar la imatge; o en les fletxes verdes per a mapes adjacents.


METAR-TAF: